x

Cape San Martin - 55nm West Nw Of Morro Bay, Ca (46028) Wave Buoy

11:50am - Sat 19th Apr 2014 All times are PDT. -7 hours from GMT.

  • Sig Wave height 7.2ft
  • Swell Direction
  • Peak Period 15s
  • Average Period 6s
  • Wind
    22mph, 27mph gusts
  • Sea Temp 57°f
  • Air Temp 55°f
  • Sea Pressure 1018.1mb
  • Cape San Martin - 55nm West Nw Of Morro Bay, Ca
  • Cape San Martin - 55nm West Nw Of Morro Bay, Ca

More Historic Weather Station data

Upgrade to MSW Pro to gain access to the past 30 days of data for over 8000 Wavebouys and Weather Stations around the globe.

Join Pro

Comparision Forecast

View Surf forecast
   
Sat 04/19 11:50am 7ft 15s 6s 22 27 mph 1018.1mb 57f 55f
10:50am  -   -   -  22
mph
- - 55f
9:50am 7ft 15s 6s 22 27 mph 1017.4mb 57f 55f
8:50am 6.5ft 11s 6s 25 29 mph 1016.9mb 56f 55f
7:50am 7ft 15s 6s 20 25 mph 1016.8mb 56f 55f
6:50am 7ft 15s 6s 20 27 mph 1016.1mb 56f 55f
5:50am  -   -   -  18 22 mph 1015.5mb 56f 55f
4:50am 7ft 11s 7s 18 22 mph 1015.4mb 57f 55f
3:50am 7ft 11s 7s 18 20 mph 1015.1mb 57f 55f
2:50am 7ft 11s 7s 16 18 mph 1014.8mb 57f 55f
1:50am 7ft 11s 7s 16 20 mph 1015mb 57f 55f
12:50am 7ft 12s 7s 16 20 mph 1014.8mb 57f 55f
Fri 04/18 11:50pm  -   -   -  16 20 mph 1014.8mb 57f 55f
10:50pm 6ft 11s 6s 16 18 mph 1014.6mb 57f 55f
9:50pm 6.5ft 11s 6s 18 20 mph 1014.7mb 57f 55f
8:50pm 7ft 11s 6s 18 20 mph 1014.3mb 57f 55f
7:50pm 7ft 8s 6s 20 25 mph 1013.9mb 57f 54f
6:50pm 7.5ft 8s 6s 18 22 mph 1013.7mb 57f 54f
5:50pm 8ft 9s 6s 18 22 mph 1013.5mb 57f 55f
4:50pm 8ft 8s 7s 18 20 mph 1013.6mb 57f 55f
3:50pm  -   -   -  18 22 mph 1013.9mb 57f 54f
2:50pm 8ft 8s 7s 18 22 mph 1014.3mb 57f 55f
1:50pm 7ft 11s 6s 18 20 mph 1014.4mb 57f 55f
12:50pm  -   -   -  18 22 mph 1014.3mb 57f 55f
11:50am 8.5ft 8s 7s 20 25 mph 1014.2mb 57f 55f
10:50am  -   -   -  20 25 mph 1014.3mb 57f 55f
9:50am 8.5ft 11s 6s 20 25 mph 1014mb 57f 55f
8:50am 9ft 9s 7s 20 29 mph 1013.9mb 57f 55f
7:50am  -   -   -  22 29 mph 1013.5mb 57f 55f
6:50am 10ft 9s 7s 20 25 mph 1012.9mb 57f 55f
5:50am 9ft 8s 7s 20 27 mph 1012.6mb 57f 55f
4:50am  -   -   -  20 27 mph 1012.5mb 57f 55f
3:50am 10ft 9s 7s 20 25 mph 1012.2mb 57f 55f
2:50am  -   -   -  27 31 mph 1011.2mb 57f 55f
1:50am 9.5ft 9s 6s 27 31 mph 1011.3mb 57f 56f
12:50am 9.5ft 10s 6s 29 36 mph 1011.5mb 57f 56f
Thu 04/17 11:50pm 9.5ft 10s 7s 31 36 mph 1010.4mb 57f 56f
10:50pm 9ft 11s 7s 27 34 mph 1010.5mb 57f 57f
9:50pm  -   -   -  27 34 mph 1010.5mb 57f 56f
8:50pm  -   -   -  25 31 mph 1010.9mb 57f 56f
7:50pm 9.5ft 9s 7s 25 31 mph 1011mb 57f 56f
6:50pm 8.5ft 9s 6s 25 29 mph 1011.7mb 57f 56f
5:50pm  -   -   -  20 27 mph 1012.2mb 57f 56f
4:50pm 8.5ft 9s 7s 20 22 mph 1012.5mb 57f 55f
3:50pm 8.5ft 9s 7s 20 25 mph 1012.6mb 57f 55f
2:50pm 9ft 9s 7s 18 20 mph 1013.1mb 57f 55f
1:50pm 9ft 10s 7s 18 20 mph 1013.1mb 57f 55f
12:50pm 9ft 10s 7s 22 27 mph 1012.7mb 57f 55f
11:50am 9ft 10s 7s 20 25 mph 1013.2mb 57f 55f
10:50am 9.5ft 10s 7s 18 20 mph 1012.9mb 57f 55f
9:50am  -   -   -  16 18 mph 1012.4mb 57f 55f
8:50am 9.5ft 10s 7s 16 18 mph 1012mb 57f 55f
7:50am  -   -   -  16 18 mph 1011.2mb 57f 55f
6:50am 10.5ft 10s 7s 18 20 mph 1009.9mb 57f 55f
5:50am 11ft 10s 7s 20 22 mph 1009.3mb 57f 55f
4:50am  -   -   -  20 25 mph 1009.8mb 57f 55f
3:50am 11ft 10s 7s 20 27 mph 1009.6mb 57f 55f
2:50am 11ft 11s 7s 20 25 mph 1009.6mb 57f 55f
1:50am  -   -   -  25 29 mph 1009.5mb 57f 55f
12:50am  -   -   -  22 27 mph 1010mb 57f 56f
Wed 04/16 11:50pm 12ft 9s 7s 27 31 mph 1009.7mb 57f 56f
10:50pm  -   -   -  27 34 mph 1010mb 57f 56f
8:50pm  -   -   -  29 36 mph 1009.1mb 57f 56f
7:50pm  -   -   -  27 34 mph 1009.2mb 58f 57f
6:50pm 12ft 11s 7s 27 34 mph 1009.2mb 58f 57f
5:50pm 12ft 10s 7s 27 34 mph 1009.5mb 58f 57f
4:50pm 11.5ft 11s 7s 25 31 mph 1009.9mb 58f 56f
3:50pm  -   -   -  22 27 mph 1010.7mb 57f 56f
2:50pm 11.5ft 10s 8s 22 27 mph 1011.3mb 57f 56f
1:50pm  -   -   -  22 27 mph 1011.4mb 57f 56f
12:50pm 10ft 11s 7s 20 27 mph 1011.7mb 57f 56f
11:50am  -   -   -  25 29 mph 1011.9mb 57f 56f
10:50am 11.5ft 11s 7s 22 27 mph 1012.2mb 57f 56f
9:50am 11ft 11s 7s 27 34 mph 1011.6mb 57f 56f
8:50am 12ft 10s 7s 29 34 mph 1011.6mb 57f 56f
7:50am  -   -   -  29 34 mph 1011.6mb 57f 56f
6:50am  -   -   -  31 36 mph 1011.1mb 57f 56f
5:50am  -   -   -  29 38 mph 1011.1mb 57f 56f
4:50am  -   -   -  31 36 mph 1011.2mb 57f 56f
3:50am  -   -   -  29 36 mph 1011.5mb 57f 56f
2:50am  -   -   -  29 36 mph 1011.7mb 57f 56f
1:50am  -   -   -  29 36 mph 1011.6mb 57f 56f
12:50am  -   -   -  27 34 mph 1012mb 58f 56f
Tue 04/15 11:50pm 11ft 10s 7s 29 36 mph 1012.1mb 58f 56f
10:50pm  -   -   -  29 34 mph 1012.3mb 58f 56f
9:50pm  -   -   -  29 36 mph 1012.6mb 58f 56f
8:50pm  -   -   -  29 36 mph 1012.1mb 58f 56f
7:50pm  -   -   -  29 36 mph 1012mb 58f 56f